Time,TemperatureF,DewpointF,PressureIn,WindDirection,WindDirectionDegrees,WindSpeedMPH,WindSpeedGustMPH,Humidity,HourlyPrecipIn,Conditions,Clouds,dailyrainin,SoftwareType,DateUTC
2013-05-18 00:02:00,44.0,25.0,-100.00,SE,130,6.0,7.0,46,-99.99,,,-99.99,,2013-05-18 06:02:00,
2013-05-18 00:11:00,43.0,24.0,-100.00,East,95,4.0,7.0,47,-99.99,,,-99.99,,2013-05-18 06:11:00,
2013-05-18 00:21:00,43.0,25.0,-100.00,ESE,110,7.0,7.0,48,-99.99,,,-99.99,,2013-05-18 06:21:00,
2013-05-18 00:31:00,42.0,25.0,-100.00,East,100,7.0,9.0,50,-99.99,,,-99.99,,2013-05-18 06:31:00,
2013-05-18 00:41:00,42.0,26.0,-100.00,ENE,75,12.0,14.0,52,-99.99,,,-99.99,,2013-05-18 06:41:00,
2013-05-18 00:51:00,42.0,27.0,-100.00,East,85,11.0,12.0,53,-99.99,,,-99.99,,2013-05-18 06:51:00,
2013-05-18 01:01:00,42.0,27.0,-100.00,East,85,10.0,12.0,55,-99.99,,,-99.99,,2013-05-18 07:01:00,
2013-05-18 01:11:00,43.0,29.0,-100.00,East,85,12.0,12.0,57,-99.99,,,-99.99,,2013-05-18 07:11:00,
2013-05-18 01:21:00,41.0,28.0,-100.00,East,90,11.0,12.0,59,-99.99,,,-99.99,,2013-05-18 07:21:00,
2013-05-18 01:31:00,40.0,28.0,-100.00,East,90,11.0,13.0,62,-99.99,,,-99.99,,2013-05-18 07:31:00,
2013-05-18 01:42:00,39.0,28.0,-100.00,ESE,105,11.0,12.0,63,-99.99,,,-99.99,,2013-05-18 07:42:00,
2013-05-18 01:52:00,38.0,28.0,-100.00,ESE,120,11.0,11.0,64,-99.99,,,-99.99,,2013-05-18 07:52:00,
2013-05-18 02:01:00,39.0,28.0,-100.00,ESE,115,10.0,11.0,64,-99.99,,,-99.99,,2013-05-18 08:01:00,
2013-05-18 02:11:00,39.0,28.0,-100.00,ESE,110,11.0,12.0,64,-99.99,,,-99.99,,2013-05-18 08:11:00,
2013-05-18 02:21:00,39.0,28.0,-100.00,SE,125,9.0,12.0,64,-99.99,,,-99.99,,2013-05-18 08:21:00,
2013-05-18 02:32:00,40.0,28.0,-100.00,SE,135,10.0,13.0,61,-99.99,,,-99.99,,2013-05-18 08:32:00,
2013-05-18 02:42:00,40.0,27.0,-100.00,SE,140,9.0,12.0,60,-99.99,,,-99.99,,2013-05-18 08:42:00,
2013-05-18 02:52:00,40.0,27.0,-100.00,SE,140,8.0,12.0,60,-99.99,,,-99.99,,2013-05-18 08:52:00,
2013-05-18 03:02:00,40.0,28.0,-100.00,South,170,10.0,-999.0,60,-99.99,,,-99.99,,2013-05-18 09:02:00,
2013-05-18 03:11:00,40.0,27.0,-100.00,SSE,165,9.0,12.0,60,-99.99,,,-99.99,,2013-05-18 09:11:00,
2013-05-18 03:21:00,40.0,28.0,-100.00,South,180,12.0,-999.0,61,-99.99,,,-99.99,,2013-05-18 09:21:00,
2013-05-18 03:32:00,41.0,29.0,-100.00,South,175,12.0,15.0,61,-99.99,,,-99.99,,2013-05-18 09:32:00,
2013-05-18 03:43:00,41.0,29.0,-100.00,South,180,12.0,18.0,60,-99.99,,,-99.99,,2013-05-18 09:43:00,
2013-05-18 03:52:00,41.0,29.0,-100.00,South,180,11.0,-999.0,61,-99.99,,,-99.99,,2013-05-18 09:52:00,
2013-05-18 04:02:00,41.0,29.0,-100.00,South,185,11.0,-999.0,61,-99.99,,,-99.99,,2013-05-18 10:02:00,
2013-05-18 04:12:00,41.0,29.0,-100.00,South,185,11.0,-999.0,61,-99.99,,,-99.99,,2013-05-18 10:12:00,
2013-05-18 04:22:00,40.0,29.0,-100.00,South,185,10.0,-999.0,64,-99.99,,,-99.99,,2013-05-18 10:22:00,
2013-05-18 04:33:00,40.0,29.0,-100.00,South,185,11.0,14.0,64,-99.99,,,-99.99,,2013-05-18 10:33:00,
2013-05-18 04:42:00,39.0,29.0,-100.00,North,-999,-999.0,-999.0,64,-99.99,,,-99.99,,2013-05-18 10:42:00,
2013-05-18 04:52:00,39.0,28.0,-100.00,South,185,8.0,-999.0,65,-99.99,,,-99.99,,2013-05-18 10:52:00,
2013-05-18 05:02:00,38.0,28.0,-100.00,SSE,155,6.0,-999.0,66,-99.99,,,-99.99,,2013-05-18 11:02:00,
2013-05-18 05:12:00,38.0,28.0,-100.00,North,-999,-999.0,-999.0,68,-99.99,,,-99.99,,2013-05-18 11:12:00,
2013-05-18 05:22:00,37.0,28.0,-100.00,SE,130,4.0,8.0,69,-99.99,,,-99.99,,2013-05-18 11:22:00,
2013-05-18 05:33:00,36.0,28.0,-100.00,North,-999,-999.0,-999.0,70,-99.99,,,-99.99,,2013-05-18 11:33:00,
2013-05-18 05:42:00,37.0,29.0,-100.00,SE,130,6.0,-999.0,71,-99.99,,,-99.99,,2013-05-18 11:42:00,
2013-05-18 05:52:00,38.0,29.0,-100.00,SE,125,6.0,7.0,71,-99.99,,,-99.99,,2013-05-18 11:52:00,
2013-05-18 06:01:00,38.0,30.0,-100.00,ESE,115,6.0,-999.0,72,-99.99,,,-99.99,,2013-05-18 12:01:00,
2013-05-18 06:11:00,38.0,30.0,-100.00,North,-999,-999.0,-999.0,72,-99.99,,,-99.99,,2013-05-18 12:11:00,
2013-05-18 06:22:00,41.0,31.0,-100.00,East,80,7.0,14.0,68,-99.99,,,-99.99,,2013-05-18 12:22:00,
2013-05-18 06:33:00,41.0,31.0,-100.00,East,80,8.0,14.0,67,-99.99,,,-99.99,,2013-05-18 12:33:00,
2013-05-18 06:41:00,40.0,30.0,-100.00,North,-999,-999.0,-999.0,67,-99.99,,,-99.99,,2013-05-18 12:41:00,
2013-05-18 06:51:00,41.0,31.0,-100.00,East,100,9.0,16.0,67,-99.99,,,-99.99,,2013-05-18 12:51:00,
2013-05-18 07:01:00,41.0,31.0,-100.00,SE,125,9.0,14.0,66,-99.99,,,-99.99,,2013-05-18 13:01:00,
2013-05-18 07:11:00,42.0,31.0,-100.00,ESE,105,11.0,-999.0,66,-99.99,,,-99.99,,2013-05-18 13:11:00,
2013-05-18 07:21:00,45.0,33.0,-100.00,SSW,200,11.0,16.0,62,-99.99,,,-99.99,,2013-05-18 13:21:00,
2013-05-18 07:32:00,47.0,33.0,-100.00,SSW,210,15.0,21.0,59,-99.99,,,-99.99,,2013-05-18 13:32:00,
2013-05-18 07:43:00,47.0,33.0,-100.00,North,-999,-999.0,-999.0,58,-99.99,,,-99.99,,2013-05-18 13:43:00,
2013-05-18 07:52:00,48.0,33.0,-100.00,SSW,195,12.0,21.0,56,-99.99,,,-99.99,,2013-05-18 13:52:00,
2013-05-18 08:03:00,49.0,33.0,-100.00,SSW,200,12.0,17.0,55,-99.99,,,-99.99,,2013-05-18 14:03:00,
2013-05-18 08:12:00,49.0,33.0,-100.00,SW,215,12.0,21.0,54,-99.99,,,-99.99,,2013-05-18 14:12:00,
2013-05-18 08:22:00,50.0,33.0,-100.00,SW,225,14.0,20.0,52,-99.99,,,-99.99,,2013-05-18 14:22:00,
2013-05-18 08:32:00,51.0,34.0,-100.00,SW,220,16.0,20.0,51,-99.99,,,-99.99,,2013-05-18 14:32:00,
2013-05-18 08:42:00,51.0,33.0,-100.00,SW,225,17.0,21.0,51,-99.99,,,-99.99,,2013-05-18 14:42:00,
2013-05-18 08:53:00,51.0,33.0,-100.00,SW,230,17.0,22.0,49,-99.99,,,-99.99,,2013-05-18 14:53:00,
2013-05-18 09:03:00,52.0,33.0,-100.00,North,-999,-999.0,-999.0,47,-99.99,,,-99.99,,2013-05-18 15:03:00,
2013-05-18 09:12:00,53.0,33.0,-100.00,SW,220,14.0,19.0,46,-99.99,,,-99.99,,2013-05-18 15:12:00,
2013-05-18 09:23:00,53.0,33.0,-100.00,SSW,210,12.0,21.0,46,-99.99,,,-99.99,,2013-05-18 15:23:00,
2013-05-18 09:33:00,54.0,33.0,-100.00,SW,225,13.0,-999.0,45,-99.99,,,-99.99,,2013-05-18 15:33:00,
2013-05-18 09:43:00,54.0,33.0,-100.00,SW,230,16.0,19.0,44,-99.99,,,-99.99,,2013-05-18 15:43:00,
2013-05-18 09:53:00,54.0,33.0,-100.00,SW,225,12.0,-999.0,43,-99.99,,,-99.99,,2013-05-18 15:53:00,
2013-05-18 10:02:00,54.0,32.0,-100.00,SW,235,15.0,25.0,42,-99.99,,,-99.99,,2013-05-18 16:02:00,
2013-05-18 10:12:00,54.0,32.0,-100.00,SW,230,13.0,21.0,42,-99.99,,,-99.99,,2013-05-18 16:12:00,
2013-05-18 10:22:00,55.0,32.0,-100.00,WSW,240,18.0,25.0,41,-99.99,,,-99.99,,2013-05-18 16:22:00,
2013-05-18 10:32:00,55.0,31.0,-100.00,SW,225,17.0,24.0,40,-99.99,,,-99.99,,2013-05-18 16:32:00,
2013-05-18 10:41:00,56.0,31.0,-100.00,West,260,20.0,26.0,38,-99.99,,,-99.99,,2013-05-18 16:41:00,
2013-05-18 10:52:00,55.0,31.0,-100.00,WSW,250,18.0,24.0,38,-99.99,,,-99.99,,2013-05-18 16:52:00,
2013-05-18 11:02:00,55.0,31.0,-100.00,SW,235,16.0,23.0,38,-99.99,,,-99.99,,2013-05-18 17:02:00,
2013-05-18 11:12:00,56.0,31.0,-100.00,SW,235,17.0,22.0,38,-99.99,,,-99.99,,2013-05-18 17:12:00,
2013-05-18 11:22:00,55.0,30.0,-100.00,SW,225,16.0,24.0,37,-99.99,,,-99.99,,2013-05-18 17:22:00,
2013-05-18 11:32:00,55.0,30.0,-100.00,SW,230,18.0,22.0,37,-99.99,,,-99.99,,2013-05-18 17:32:00,
2013-05-18 11:42:00,56.0,30.0,-100.00,SW,235,18.0,27.0,36,-99.99,,,-99.99,,2013-05-18 17:42:00,
2013-05-18 11:51:00,56.0,30.0,-100.00,WSW,245,21.0,-999.0,36,-99.99,,,-99.99,,2013-05-18 17:51:00,
2013-05-18 12:01:00,58.0,30.0,-100.00,WSW,255,19.0,28.0,35,-99.99,,,-99.99,,2013-05-18 18:01:00,
2013-05-18 12:12:00,56.0,29.0,-100.00,WSW,245,19.0,27.0,35,-99.99,,,-99.99,,2013-05-18 18:12:00,
2013-05-18 12:21:00,58.0,30.0,-100.00,SW,235,18.0,24.0,33,-99.99,,,-99.99,,2013-05-18 18:21:00,
2013-05-18 12:31:00,59.0,30.0,-100.00,SSW,210,19.0,24.0,33,-99.99,,,-99.99,,2013-05-18 18:31:00,
2013-05-18 12:41:00,58.0,29.0,-100.00,WSW,255,17.0,26.0,33,-99.99,,,-99.99,,2013-05-18 18:41:00,
2013-05-18 12:51:00,59.0,30.0,-100.00,SW,225,20.0,31.0,32,-99.99,,,-99.99,,2013-05-18 18:51:00,
2013-05-18 13:01:00,59.0,29.0,-100.00,SW,235,22.0,31.0,31,-99.99,,,-99.99,,2013-05-18 19:01:00,
2013-05-18 13:11:00,60.0,29.0,-100.00,WSW,250,17.0,31.0,31,-99.99,,,-99.99,,2013-05-18 19:11:00,
2013-05-18 13:21:00,59.0,29.0,-100.00,WSW,245,22.0,-999.0,31,-99.99,,,-99.99,,2013-05-18 19:21:00,
2013-05-18 13:31:00,59.0,27.0,-100.00,SW,230,19.0,26.0,29,-99.99,,,-99.99,,2013-05-18 19:31:00,
2013-05-18 13:42:00,60.0,29.0,-100.00,West,260,19.0,27.0,29,-99.99,,,-99.99,,2013-05-18 19:42:00,
2013-05-18 13:52:00,59.0,27.0,-100.00,North,-999,-999.0,-999.0,29,-99.99,,,-99.99,,2013-05-18 19:52:00,
2013-05-18 14:01:00,59.0,28.0,-100.00,WSW,250,15.0,31.0,29,-99.99,,,-99.99,,2013-05-18 20:01:00,
2013-05-18 14:11:00,60.0,27.0,-100.00,SW,235,17.0,26.0,28,-99.99,,,-99.99,,2013-05-18 20:11:00,
2013-05-18 14:21:00,61.0,26.0,-100.00,SW,225,19.0,26.0,26,-99.99,,,-99.99,,2013-05-18 20:21:00,
2013-05-18 14:32:00,61.0,28.0,-100.00,SW,230,20.0,29.0,27,-99.99,,,-99.99,,2013-05-18 20:32:00,
2013-05-18 14:42:00,62.0,26.0,-100.00,WSW,240,18.0,29.0,25,-99.99,,,-99.99,,2013-05-18 20:42:00,
2013-05-18 14:52:00,62.0,27.0,-100.00,WSW,255,23.0,27.0,25,-99.99,,,-99.99,,2013-05-18 20:52:00,
2013-05-18 15:01:00,62.0,25.0,-100.00,West,260,26.0,30.0,23,-99.99,,,-99.99,,2013-05-18 21:01:00,
2013-05-18 15:11:00,62.0,26.0,-100.00,SW,235,24.0,30.0,24,-99.99,,,-99.99,,2013-05-18 21:11:00,
2013-05-18 15:21:00,62.0,25.0,-100.00,WSW,245,26.0,-999.0,24,-99.99,,,-99.99,,2013-05-18 21:21:00,
2013-05-18 15:32:00,63.0,25.0,-100.00,West,280,22.0,32.0,23,-99.99,,,-99.99,,2013-05-18 21:32:00,
2013-05-18 15:43:00,62.0,24.0,-100.00,West,260,25.0,34.0,23,-99.99,,,-99.99,,2013-05-18 21:43:00,
2013-05-18 15:53:00,60.0,23.0,-100.00,WSW,250,27.0,35.0,24,-99.99,,,-99.99,,2013-05-18 21:53:00,
2013-05-18 16:03:00,60.0,24.0,-100.00,WSW,250,23.0,35.0,25,-99.99,,,-99.99,,2013-05-18 22:03:00,
2013-05-18 16:12:00,59.0,23.0,-100.00,WSW,245,24.0,35.0,24,-99.99,,,-99.99,,2013-05-18 22:12:00,
2013-05-18 16:23:00,59.0,24.0,-100.00,WSW,255,22.0,32.0,25,-99.99,,,-99.99,,2013-05-18 22:23:00,
2013-05-18 16:32:00,59.0,23.0,-100.00,West,260,22.0,-999.0,25,-99.99,,,-99.99,,2013-05-18 22:32:00,
2013-05-18 16:42:00,58.0,23.0,-100.00,WSW,250,23.0,-999.0,25,-99.99,,,-99.99,,2013-05-18 22:42:00,
2013-05-18 16:52:00,58.0,22.0,-100.00,West,265,24.0,-999.0,25,-99.99,,,-99.99,,2013-05-18 22:52:00,
2013-05-18 17:01:00,58.0,22.0,-100.00,West,265,18.0,27.0,25,-99.99,,,-99.99,,2013-05-18 23:01:00,
2013-05-18 17:11:00,58.0,23.0,-100.00,West,265,17.0,-999.0,25,-99.99,,,-99.99,,2013-05-18 23:11:00,
2013-05-18 17:21:00,59.0,23.0,-100.00,West,280,17.0,24.0,25,-99.99,,,-99.99,,2013-05-18 23:21:00,
2013-05-18 17:32:00,58.0,29.0,-100.00,NNW,345,19.0,24.0,33,-99.99,,,-99.99,,2013-05-18 23:32:00,
2013-05-18 17:41:00,55.0,31.0,-100.00,NNW,340,18.0,27.0,39,-99.99,,,-99.99,,2013-05-18 23:41:00,
2013-05-18 17:52:00,55.0,32.0,-100.00,NNW,335,20.0,25.0,40,-99.99,,,-99.99,,2013-05-18 23:52:00,
2013-05-18 18:01:00,56.0,32.0,-100.00,North,0,14.0,21.0,40,-99.99,,,-99.99,,2013-05-19 00:01:00,
2013-05-18 18:11:00,56.0,31.0,-100.00,NNE,20,13.0,21.0,39,-99.99,,,-99.99,,2013-05-19 00:11:00,
2013-05-18 18:21:00,56.0,31.0,-100.00,NNW,335,17.0,21.0,38,-99.99,,,-99.99,,2013-05-19 00:21:00,
2013-05-18 18:31:00,55.0,31.0,-100.00,NNW,330,14.0,21.0,40,-99.99,,,-99.99,,2013-05-19 00:31:00,
2013-05-18 18:41:00,55.0,32.0,-100.00,NNW,330,16.0,21.0,40,-99.99,,,-99.99,,2013-05-19 00:41:00,
2013-05-18 18:51:00,53.0,31.0,-100.00,NNW,330,13.0,19.0,41,-99.99,,,-99.99,,2013-05-19 00:51:00,
2013-05-18 19:01:00,53.0,30.0,-100.00,NW,320,15.0,-999.0,41,-99.99,,,-99.99,,2013-05-19 01:01:00,
2013-05-18 19:11:00,54.0,32.0,-100.00,NW,310,11.0,-999.0,42,-99.99,,,-99.99,,2013-05-19 01:11:00,
2013-05-18 19:21:00,53.0,31.0,-100.00,NNW,340,11.0,-999.0,42,-99.99,,,-99.99,,2013-05-19 01:21:00,
2013-05-18 19:32:00,53.0,31.0,-100.00,NW,315,9.0,-999.0,42,-99.99,,,-99.99,,2013-05-19 01:32:00,
2013-05-18 19:41:00,53.0,31.0,-100.00,NW,305,9.0,12.0,42,-99.99,,,-99.99,,2013-05-19 01:41:00,
2013-05-18 19:52:00,53.0,31.0,-100.00,North,-999,-999.0,-999.0,42,-99.99,,,-99.99,,2013-05-19 01:52:00,
2013-05-18 20:01:00,53.0,31.0,-100.00,WNW,285,10.0,13.0,43,-99.99,,,-99.99,,2013-05-19 02:01:00,
2013-05-18 20:11:00,52.0,31.0,-100.00,NW,305,9.0,12.0,43,-99.99,,,-99.99,,2013-05-19 02:11:00,
2013-05-18 20:21:00,51.0,30.0,-100.00,NW,305,6.0,10.0,44,-99.99,,,-99.99,,2013-05-19 02:21:00,
2013-05-18 20:31:00,51.0,30.0,-100.00,NW,310,4.0,-999.0,44,-99.99,,,-99.99,,2013-05-19 02:31:00,
2013-05-18 20:42:00,50.0,30.0,-100.00,North,-999,-999.0,-999.0,45,-99.99,,,-99.99,,2013-05-19 02:42:00,
2013-05-18 20:52:00,49.0,30.0,-100.00,NW,325,5.0,7.0,47,-99.99,,,-99.99,,2013-05-19 02:52:00,
2013-05-18 21:01:00,48.0,31.0,-100.00,NNW,345,5.0,6.0,51,-99.99,,,-99.99,,2013-05-19 03:01:00,
2013-05-18 21:11:00,47.0,32.0,-100.00,North,0,6.0,-999.0,54,-99.99,,,-99.99,,2013-05-19 03:11:00,
2013-05-18 21:21:00,48.0,35.0,-100.00,North,0,6.0,7.0,60,-99.99,,,-99.99,,2013-05-19 03:21:00,
2013-05-18 21:32:00,48.0,36.0,-100.00,North,5,6.0,7.0,62,-99.99,,,-99.99,,2013-05-19 03:32:00,
2013-05-18 21:42:00,48.0,36.0,-100.00,NE,35,5.0,7.0,63,-99.99,,,-99.99,,2013-05-19 03:42:00,
2013-05-18 21:53:00,49.0,37.0,-100.00,NNE,30,11.0,15.0,62,-99.99,,,-99.99,,2013-05-19 03:53:00,
2013-05-18 22:02:00,48.0,38.0,-100.00,North,355,12.0,-999.0,67,-99.99,,,-99.99,,2013-05-19 04:02:00,
2013-05-18 22:12:00,45.0,38.0,-100.00,NW,315,12.0,19.0,76,-99.99,,,-99.99,,2013-05-19 04:12:00,
2013-05-18 22:33:00,42.0,38.0,-100.00,NW,310,11.0,21.0,84,-99.99,,,-99.99,,2013-05-19 04:33:00,
2013-05-18 22:41:00,44.0,40.0,-100.00,NW,315,16.0,21.0,86,-99.99,,,-99.99,,2013-05-19 04:41:00,
2013-05-18 22:52:00,43.0,40.0,-100.00,NNW,330,14.0,19.0,86,-99.99,,,-99.99,,2013-05-19 04:52:00,
2013-05-18 23:02:00,44.0,40.0,-100.00,NNW,340,12.0,17.0,87,-99.99,,,-99.99,,2013-05-19 05:02:00,
2013-05-18 23:11:00,44.0,40.0,-100.00,NNW,340,14.0,18.0,87,-99.99,,,-99.99,,2013-05-19 05:11:00,
2013-05-18 23:21:00,43.0,39.0,-100.00,NW,305,15.0,21.0,87,-99.99,,,-99.99,,2013-05-19 05:21:00,
2013-05-18 23:32:00,42.0,39.0,-100.00,NW,305,14.0,20.0,87,-99.99,,,-99.99,,2013-05-19 05:32:00,
2013-05-18 23:42:00,42.0,38.0,-100.00,NW,320,12.0,22.0,87,-99.99,,,-99.99,,2013-05-19 05:42:00,
2013-05-18 23:51:00,42.0,39.0,-100.00,NNW,340,9.0,12.0,87,-99.99,,,-99.99,,2013-05-19 05:51:00,